sensor_id;sensor_type;location;lat;lon;timestamp;temperature;humidity
18888;DHT22;9576;47.792;9.628;2023-01-13T00:00:23;6.90;99.90
18888;DHT22;9576;47.792;9.628;2023-01-13T00:03:25;6.80;99.90
18888;DHT22;9576;47.792;9.628;2023-01-13T00:06:27;6.80;99.90
18888;DHT22;9576;47.792;9.628;2023-01-13T00:09:29;6.70;99.90
18888;DHT22;9576;47.792;9.628;2023-01-13T00:12:31;6.70;99.90
18888;DHT22;9576;47.792;9.628;2023-01-13T00:15:34;6.60;99.90
18888;DHT22;9576;47.792;9.628;2023-01-13T00:18:36;6.50;99.90
18888;DHT22;9576;47.792;9.628;2023-01-13T00:21:38;6.50;99.90
18888;DHT22;9576;47.792;9.628;2023-01-13T00:24:40;6.50;99.90
18888;DHT22;9576;47.792;9.628;2023-01-13T00:27:42;6.50;99.90
18888;DHT22;9576;47.792;9.628;2023-01-13T00:30:45;6.50;99.90
18888;DHT22;9576;47.792;9.628;2023-01-13T00:33:47;6.50;99.90
18888;DHT22;9576;47.792;9.628;2023-01-13T00:36:50;6.50;99.90
18888;DHT22;9576;47.792;9.628;2023-01-13T00:39:52;6.50;99.90
18888;DHT22;9576;47.792;9.628;2023-01-13T00:42:54;6.50;99.90
18888;DHT22;9576;47.792;9.628;2023-01-13T00:46:17;6.60;99.90
18888;DHT22;9576;47.792;9.628;2023-01-13T00:49:19;6.60;99.90
18888;DHT22;9576;47.792;9.628;2023-01-13T00:52:21;6.70;99.90
18888;DHT22;9576;47.792;9.628;2023-01-13T00:55:23;6.70;99.90
18888;DHT22;9576;47.792;9.628;2023-01-13T00:58:25;6.70;99.90
18888;DHT22;9576;47.792;9.628;2023-01-13T01:01:28;6.70;99.90
18888;DHT22;9576;47.792;9.628;2023-01-13T01:04:30;6.70;99.90
18888;DHT22;9576;47.792;9.628;2023-01-13T01:07:32;6.70;99.90
18888;DHT22;9576;47.792;9.628;2023-01-13T01:10:34;6.70;99.90
18888;DHT22;9576;47.792;9.628;2023-01-13T01:13:36;6.60;99.90
18888;DHT22;9576;47.792;9.628;2023-01-13T01:16:40;6.60;99.90
18888;DHT22;9576;47.792;9.628;2023-01-13T01:19:42;6.60;99.90
18888;DHT22;9576;47.792;9.628;2023-01-13T01:22:44;6.60;99.90
18888;DHT22;9576;47.792;9.628;2023-01-13T01:25:46;6.70;99.90
18888;DHT22;9576;47.792;9.628;2023-01-13T01:28:48;6.80;99.90
18888;DHT22;9576;47.792;9.628;2023-01-13T01:31:51;6.80;99.90
18888;DHT22;9576;47.792;9.628;2023-01-13T01:34:53;6.80;99.90
18888;DHT22;9576;47.792;9.628;2023-01-13T01:37:55;6.90;99.90
18888;DHT22;9576;47.792;9.628;2023-01-13T01:40:57;6.90;99.90
18888;DHT22;9576;47.792;9.628;2023-01-13T01:44:02;6.80;99.90
18888;DHT22;9576;47.792;9.628;2023-01-13T01:47:08;6.90;99.90
18888;DHT22;9576;47.792;9.628;2023-01-13T01:50:11;6.90;99.90
18888;DHT22;9576;47.792;9.628;2023-01-13T01:53:16;6.90;99.90
18888;DHT22;9576;47.792;9.628;2023-01-13T01:56:19;6.90;99.90
18888;DHT22;9576;47.792;9.628;2023-01-13T01:59:21;6.90;99.90
18888;DHT22;9576;47.792;9.628;2023-01-13T02:02:25;7.00;99.90
18888;DHT22;9576;47.792;9.628;2023-01-13T02:05:27;7.00;99.90
18888;DHT22;9576;47.792;9.628;2023-01-13T02:08:30;6.90;99.90
18888;DHT22;9576;47.792;9.628;2023-01-13T02:11:33;6.90;99.90
18888;DHT22;9576;47.792;9.628;2023-01-13T02:14:52;6.90;99.90
18888;DHT22;9576;47.792;9.628;2023-01-13T02:18:08;6.90;99.90
18888;DHT22;9576;47.792;9.628;2023-01-13T02:21:34;6.90;99.90
18888;DHT22;9576;47.792;9.628;2023-01-13T02:25:10;7.00;99.90
18888;DHT22;9576;47.792;9.628;2023-01-13T02:28:37;6.90;99.90
18888;DHT22;9576;47.792;9.628;2023-01-13T02:32:10;7.00;99.90
18888;DHT22;9576;47.792;9.628;2023-01-13T02:35:19;6.90;99.90
18888;DHT22;9576;47.792;9.628;2023-01-13T02:38:26;6.90;99.90
18888;DHT22;9576;47.792;9.628;2023-01-13T02:41:35;6.90;99.90
18888;DHT22;9576;47.792;9.628;2023-01-13T02:45:01;6.80;99.90
18888;DHT22;9576;47.792;9.628;2023-01-13T02:48:08;6.80;99.90
18888;DHT22;9576;47.792;9.628;2023-01-13T02:51:13;6.80;99.90
18888;DHT22;9576;47.792;9.628;2023-01-13T02:54:19;6.90;99.90
18888;DHT22;9576;47.792;9.628;2023-01-13T02:57:23;7.00;99.90
18888;DHT22;9576;47.792;9.628;2023-01-13T03:00:26;7.20;99.90
18888;DHT22;9576;47.792;9.628;2023-01-13T03:03:29;7.20;99.90
18888;DHT22;9576;47.792;9.628;2023-01-13T03:06:40;7.40;99.90
18888;DHT22;9576;47.792;9.628;2023-01-13T03:09:51;7.50;99.90
18888;DHT22;9576;47.792;9.628;2023-01-13T03:13:01;7.50;99.90
18888;DHT22;9576;47.792;9.628;2023-01-13T03:16:14;7.60;99.90
18888;DHT22;9576;47.792;9.628;2023-01-13T03:19:30;7.60;99.90
18888;DHT22;9576;47.792;9.628;2023-01-13T03:22:40;7.60;99.90
18888;DHT22;9576;47.792;9.628;2023-01-13T03:25:49;7.70;99.90
18888;DHT22;9576;47.792;9.628;2023-01-13T03:28:58;7.60;99.90
18888;DHT22;9576;47.792;9.628;2023-01-13T03:32:06;7.60;99.90
18888;DHT22;9576;47.792;9.628;2023-01-13T03:35:15;7.60;99.90
18888;DHT22;9576;47.792;9.628;2023-01-13T03:38:30;7.60;99.90
18888;DHT22;9576;47.792;9.628;2023-01-13T03:41:36;7.60;99.90
18888;DHT22;9576;47.792;9.628;2023-01-13T03:44:41;7.60;99.90
18888;DHT22;9576;47.792;9.628;2023-01-13T03:47:50;7.70;99.90
18888;DHT22;9576;47.792;9.628;2023-01-13T03:50:57;7.70;99.90
18888;DHT22;9576;47.792;9.628;2023-01-13T03:54:05;7.80;99.90
18888;DHT22;9576;47.792;9.628;2023-01-13T03:57:13;7.80;99.90
18888;DHT22;9576;47.792;9.628;2023-01-13T04:00:17;7.80;99.90
18888;DHT22;9576;47.792;9.628;2023-01-13T04:03:23;7.80;99.90
18888;DHT22;9576;47.792;9.628;2023-01-13T04:06:33;7.80;99.90
18888;DHT22;9576;47.792;9.628;2023-01-13T04:09:44;7.70;99.90
18888;DHT22;9576;47.792;9.628;2023-01-13T04:12:52;7.80;99.90
18888;DHT22;9576;47.792;9.628;2023-01-13T04:16:05;7.80;99.90
18888;DHT22;9576;47.792;9.628;2023-01-13T04:19:08;7.80;99.90
18888;DHT22;9576;47.792;9.628;2023-01-13T04:22:11;7.80;99.90
18888;DHT22;9576;47.792;9.628;2023-01-13T04:25:14;7.80;99.90
18888;DHT22;9576;47.792;9.628;2023-01-13T04:28:16;7.80;99.90
18888;DHT22;9576;47.792;9.628;2023-01-13T04:31:18;7.70;99.90
18888;DHT22;9576;47.792;9.628;2023-01-13T04:34:20;7.70;99.90
18888;DHT22;9576;47.792;9.628;2023-01-13T04:37:23;7.70;99.90
18888;DHT22;9576;47.792;9.628;2023-01-13T04:40:25;7.60;99.90
18888;DHT22;9576;47.792;9.628;2023-01-13T04:43:27;7.70;99.90
18888;DHT22;9576;47.792;9.628;2023-01-13T04:46:29;7.70;99.90
18888;DHT22;9576;47.792;9.628;2023-01-13T04:49:31;7.70;99.90
18888;DHT22;9576;47.792;9.628;2023-01-13T04:52:34;7.70;99.90
18888;DHT22;9576;47.792;9.628;2023-01-13T04:55:36;7.70;99.90
18888;DHT22;9576;47.792;9.628;2023-01-13T04:58:38;7.70;99.90
18888;DHT22;9576;47.792;9.628;2023-01-13T05:01:40;7.60;99.90
18888;DHT22;9576;47.792;9.628;2023-01-13T05:04:42;7.60;99.90
18888;DHT22;9576;47.792;9.628;2023-01-13T05:07:46;7.60;99.90
18888;DHT22;9576;47.792;9.628;2023-01-13T05:10:47;7.50;99.90
18888;DHT22;9576;47.792;9.628;2023-01-13T05:13:49;7.50;99.90
18888;DHT22;9576;47.792;9.628;2023-01-13T05:17:09;7.50;99.90
18888;DHT22;9576;47.792;9.628;2023-01-13T05:20:13;7.50;99.90
18888;DHT22;9576;47.792;9.628;2023-01-13T05:23:16;7.50;99.90
18888;DHT22;9576;47.792;9.628;2023-01-13T05:26:35;7.40;99.90
18888;DHT22;9576;47.792;9.628;2023-01-13T05:29:37;7.30;99.90
18888;DHT22;9576;47.792;9.628;2023-01-13T05:32:39;7.40;99.90
18888;DHT22;9576;47.792;9.628;2023-01-13T05:35:43;7.40;99.90
18888;DHT22;9576;47.792;9.628;2023-01-13T05:38:46;7.30;99.90
18888;DHT22;9576;47.792;9.628;2023-01-13T05:41:48;7.40;99.90
18888;DHT22;9576;47.792;9.628;2023-01-13T05:45:09;7.30;99.90
18888;DHT22;9576;47.792;9.628;2023-01-13T05:48:11;7.40;99.90
18888;DHT22;9576;47.792;9.628;2023-01-13T05:51:13;7.40;99.90
18888;DHT22;9576;47.792;9.628;2023-01-13T05:54:16;7.40;99.90
18888;DHT22;9576;47.792;9.628;2023-01-13T05:57:18;7.30;99.90
18888;DHT22;9576;47.792;9.628;2023-01-13T06:00:20;7.40;99.90
18888;DHT22;9576;47.792;9.628;2023-01-13T06:03:22;7.30;99.90
18888;DHT22;9576;47.792;9.628;2023-01-13T06:06:24;7.30;99.90
18888;DHT22;9576;47.792;9.628;2023-01-13T06:09:27;7.30;99.90
18888;DHT22;9576;47.792;9.628;2023-01-13T06:12:29;7.30;99.90
18888;DHT22;9576;47.792;9.628;2023-01-13T06:15:31;7.30;99.90
18888;DHT22;9576;47.792;9.628;2023-01-13T06:18:33;7.30;99.90
18888;DHT22;9576;47.792;9.628;2023-01-13T06:21:35;7.40;99.90
18888;DHT22;9576;47.792;9.628;2023-01-13T06:24:39;7.40;99.90
18888;DHT22;9576;47.792;9.628;2023-01-13T06:27:41;7.30;99.90
18888;DHT22;9576;47.792;9.628;2023-01-13T06:30:45;7.40;99.90
18888;DHT22;9576;47.792;9.628;2023-01-13T06:33:51;7.30;99.90
18888;DHT22;9576;47.792;9.628;2023-01-13T06:36:54;7.30;99.90
18888;DHT22;9576;47.792;9.628;2023-01-13T06:39:59;7.20;99.90
18888;DHT22;9576;47.792;9.628;2023-01-13T06:43:02;7.20;99.90
18888;DHT22;9576;47.792;9.628;2023-01-13T06:46:16;7.20;99.90
18888;DHT22;9576;47.792;9.628;2023-01-13T06:49:18;7.20;99.90
18888;DHT22;9576;47.792;9.628;2023-01-13T06:52:20;7.30;99.90
18888;DHT22;9576;47.792;9.628;2023-01-13T06:55:24;7.20;99.90
18888;DHT22;9576;47.792;9.628;2023-01-13T06:58:26;7.30;99.90
18888;DHT22;9576;47.792;9.628;2023-01-13T07:01:29;7.30;99.90
18888;DHT22;9576;47.792;9.628;2023-01-13T07:04:31;7.30;99.90
18888;DHT22;9576;47.792;9.628;2023-01-13T07:07:32;7.30;99.90
18888;DHT22;9576;47.792;9.628;2023-01-13T07:10:36;7.30;99.90
18888;DHT22;9576;47.792;9.628;2023-01-13T07:13:38;7.30;99.90
18888;DHT22;9576;47.792;9.628;2023-01-13T07:16:57;7.30;99.90
18888;DHT22;9576;47.792;9.628;2023-01-13T07:19:59;7.40;99.90
18888;DHT22;9576;47.792;9.628;2023-01-13T07:23:01;7.40;99.90
18888;DHT22;9576;47.792;9.628;2023-01-13T07:26:06;7.40;99.90
18888;DHT22;9576;47.792;9.628;2023-01-13T07:29:08;7.40;99.90
18888;DHT22;9576;47.792;9.628;2023-01-13T07:32:10;7.40;99.90
18888;DHT22;9576;47.792;9.628;2023-01-13T07:35:12;7.50;99.90
18888;DHT22;9576;47.792;9.628;2023-01-13T07:38:14;7.40;99.90
18888;DHT22;9576;47.792;9.628;2023-01-13T07:41:17;7.50;99.90
18888;DHT22;9576;47.792;9.628;2023-01-13T07:44:36;7.50;99.90
18888;DHT22;9576;47.792;9.628;2023-01-13T07:47:39;7.60;99.90
18888;DHT22;9576;47.792;9.628;2023-01-13T07:50:41;7.60;99.90
18888;DHT22;9576;47.792;9.628;2023-01-13T07:53:43;7.60;99.90
18888;DHT22;9576;47.792;9.628;2023-01-13T07:56:46;7.60;99.90
18888;DHT22;9576;47.792;9.628;2023-01-13T07:59:48;7.60;99.90
18888;DHT22;9576;47.792;9.628;2023-01-13T08:02:50;7.60;99.90
18888;DHT22;9576;47.792;9.628;2023-01-13T08:05:52;7.60;99.90
18888;DHT22;9576;47.792;9.628;2023-01-13T08:08:54;7.60;99.90
18888;DHT22;9576;47.792;9.628;2023-01-13T08:11:57;7.50;99.90
18888;DHT22;9576;47.792;9.628;2023-01-13T08:15:13;7.50;99.90
18888;DHT22;9576;47.792;9.628;2023-01-13T08:18:15;7.50;99.90
18888;DHT22;9576;47.792;9.628;2023-01-13T08:21:19;7.50;99.90
18888;DHT22;9576;47.792;9.628;2023-01-13T08:24:21;7.50;99.90
18888;DHT22;9576;47.792;9.628;2023-01-13T08:27:24;7.50;99.90
18888;DHT22;9576;47.792;9.628;2023-01-13T08:30:27;7.50;99.90
18888;DHT22;9576;47.792;9.628;2023-01-13T08:33:29;7.60;99.90
18888;DHT22;9576;47.792;9.628;2023-01-13T08:36:31;7.60;99.90
18888;DHT22;9576;47.792;9.628;2023-01-13T08:39:33;7.60;99.90
18888;DHT22;9576;47.792;9.628;2023-01-13T08:42:37;7.60;99.90
18888;DHT22;9576;47.792;9.628;2023-01-13T08:45:39;7.70;99.90
18888;DHT22;9576;47.792;9.628;2023-01-13T08:48:41;7.80;99.90
18888;DHT22;9576;47.792;9.628;2023-01-13T08:51:43;7.80;99.90
18888;DHT22;9576;47.792;9.628;2023-01-13T08:54:45;7.80;99.90
18888;DHT22;9576;47.792;9.628;2023-01-13T08:57:49;7.90;99.90
18888;DHT22;9576;47.792;9.628;2023-01-13T09:00:51;7.90;99.90
18888;DHT22;9576;47.792;9.628;2023-01-13T09:03:53;7.80;99.90
18888;DHT22;9576;47.792;9.628;2023-01-13T09:06:55;7.90;99.90
18888;DHT22;9576;47.792;9.628;2023-01-13T09:09:57;7.90;99.90
18888;DHT22;9576;47.792;9.628;2023-01-13T09:13:00;7.90;99.90
18888;DHT22;9576;47.792;9.628;2023-01-13T09:16:15;7.90;99.90
18888;DHT22;9576;47.792;9.628;2023-01-13T09:19:16;7.90;99.90
18888;DHT22;9576;47.792;9.628;2023-01-13T09:22:19;8.00;99.90
18888;DHT22;9576;47.792;9.628;2023-01-13T09:25:21;8.10;99.90
18888;DHT22;9576;47.792;9.628;2023-01-13T09:28:24;8.10;99.90
18888;DHT22;9576;47.792;9.628;2023-01-13T09:31:26;8.10;99.90
18888;DHT22;9576;47.792;9.628;2023-01-13T09:34:29;8.10;99.90
18888;DHT22;9576;47.792;9.628;2023-01-13T09:37:49;8.10;99.90
18888;DHT22;9576;47.792;9.628;2023-01-13T09:40:51;8.00;99.90
18888;DHT22;9576;47.792;9.628;2023-01-13T09:43:56;8.10;99.90
18888;DHT22;9576;47.792;9.628;2023-01-13T09:47:02;8.00;99.90
18888;DHT22;9576;47.792;9.628;2023-01-13T09:50:17;8.10;99.90
18888;DHT22;9576;47.792;9.628;2023-01-13T09:53:23;8.10;99.90
18888;DHT22;9576;47.792;9.628;2023-01-13T09:56:26;8.10;99.90
18888;DHT22;9576;47.792;9.628;2023-01-13T09:59:31;8.10;99.90
18888;DHT22;9576;47.792;9.628;2023-01-13T10:06:29;8.20;99.90
18888;DHT22;9576;47.792;9.628;2023-01-13T10:09:43;8.20;99.90
18888;DHT22;9576;47.792;9.628;2023-01-13T10:12:48;8.20;99.90
18888;DHT22;9576;47.792;9.628;2023-01-13T10:16:23;8.20;99.90
18888;DHT22;9576;47.792;9.628;2023-01-13T10:19:29;8.10;99.90
18888;DHT22;9576;47.792;9.628;2023-01-13T10:22:48;8.10;99.90
18888;DHT22;9576;47.792;9.628;2023-01-13T10:26:00;8.20;99.90
18888;DHT22;9576;47.792;9.628;2023-01-13T10:29:18;8.20;99.90
18888;DHT22;9576;47.792;9.628;2023-01-13T10:32:22;8.30;99.90
18888;DHT22;9576;47.792;9.628;2023-01-13T10:39:07;8.50;99.90
18888;DHT22;9576;47.792;9.628;2023-01-13T10:42:15;8.60;99.90
18888;DHT22;9576;47.792;9.628;2023-01-13T10:45:23;8.70;99.90
18888;DHT22;9576;47.792;9.628;2023-01-13T10:48:38;8.70;99.90
18888;DHT22;9576;47.792;9.628;2023-01-13T10:51:43;8.80;99.90
18888;DHT22;9576;47.792;9.628;2023-01-13T10:54:49;8.80;99.90
18888;DHT22;9576;47.792;9.628;2023-01-13T10:57:52;8.80;99.90
18888;DHT22;9576;47.792;9.628;2023-01-13T11:00:59;8.90;99.90
18888;DHT22;9576;47.792;9.628;2023-01-13T11:04:28;8.90;99.90
18888;DHT22;9576;47.792;9.628;2023-01-13T11:07:32;8.90;99.90
18888;DHT22;9576;47.792;9.628;2023-01-13T11:10:44;8.90;99.90
18888;DHT22;9576;47.792;9.628;2023-01-13T11:13:47;8.90;99.90
18888;DHT22;9576;47.792;9.628;2023-01-13T11:17:22;8.90;99.90
18888;DHT22;9576;47.792;9.628;2023-01-13T11:20:32;8.90;99.90
18888;DHT22;9576;47.792;9.628;2023-01-13T11:23:40;8.80;99.90
18888;DHT22;9576;47.792;9.628;2023-01-13T11:26:46;8.80;99.90
18888;DHT22;9576;47.792;9.628;2023-01-13T11:29:58;8.80;99.90
18888;DHT22;9576;47.792;9.628;2023-01-13T11:33:16;8.80;99.90
18888;DHT22;9576;47.792;9.628;2023-01-13T11:36:24;8.80;99.90
18888;DHT22;9576;47.792;9.628;2023-01-13T11:39:31;8.70;99.90
18888;DHT22;9576;47.792;9.628;2023-01-13T11:42:39;8.70;99.90
18888;DHT22;9576;47.792;9.628;2023-01-13T11:45:45;8.60;99.90
18888;DHT22;9576;47.792;9.628;2023-01-13T11:48:48;8.60;99.90
18888;DHT22;9576;47.792;9.628;2023-01-13T11:51:56;8.50;99.90
18888;DHT22;9576;47.792;9.628;2023-01-13T11:55:16;8.50;99.90
18888;DHT22;9576;47.792;9.628;2023-01-13T11:58:33;8.50;99.90
18888;DHT22;9576;47.792;9.628;2023-01-13T12:01:58;8.80;99.90
18888;DHT22;9576;47.792;9.628;2023-01-13T12:05:07;8.90;99.90
18888;DHT22;9576;47.792;9.628;2023-01-13T12:08:16;9.10;99.90
18888;DHT22;9576;47.792;9.628;2023-01-13T12:11:26;9.20;99.90
18888;DHT22;9576;47.792;9.628;2023-01-13T12:14:35;9.30;99.90
18888;DHT22;9576;47.792;9.628;2023-01-13T12:17:48;9.50;99.90
18888;DHT22;9576;47.792;9.628;2023-01-13T12:21:05;9.60;99.90
18888;DHT22;9576;47.792;9.628;2023-01-13T12:24:18;9.60;99.90
18888;DHT22;9576;47.792;9.628;2023-01-13T12:27:31;9.40;99.90
18888;DHT22;9576;47.792;9.628;2023-01-13T12:30:38;9.40;99.90
18888;DHT22;9576;47.792;9.628;2023-01-13T12:33:52;9.20;99.90
18888;DHT22;9576;47.792;9.628;2023-01-13T12:37:05;9.20;99.90
18888;DHT22;9576;47.792;9.628;2023-01-13T12:40:20;9.20;99.90
18888;DHT22;9576;47.792;9.628;2023-01-13T12:43:27;9.20;99.90
18888;DHT22;9576;47.792;9.628;2023-01-13T12:46:52;9.10;99.90
18888;DHT22;9576;47.792;9.628;2023-01-13T12:53:41;9.10;99.90
18888;DHT22;9576;47.792;9.628;2023-01-13T12:56:44;9.10;99.90
18888;DHT22;9576;47.792;9.628;2023-01-13T13:00:14;9.10;99.90
18888;DHT22;9576;47.792;9.628;2023-01-13T13:03:31;9.20;99.90
18888;DHT22;9576;47.792;9.628;2023-01-13T13:06:36;9.20;99.90
18888;DHT22;9576;47.792;9.628;2023-01-13T13:09:42;9.10;99.90
18888;DHT22;9576;47.792;9.628;2023-01-13T13:12:57;9.10;99.90
18888;DHT22;9576;47.792;9.628;2023-01-13T13:16:48;9.10;99.90
18888;DHT22;9576;47.792;9.628;2023-01-13T13:19:51;9.40;99.90
18888;DHT22;9576;47.792;9.628;2023-01-13T13:22:53;10.00;99.90
18888;DHT22;9576;47.792;9.628;2023-01-13T13:25:59;10.50;99.90
18888;DHT22;9576;47.792;9.628;2023-01-13T13:32:41;11.50;99.90
18888;DHT22;9576;47.792;9.628;2023-01-13T13:35:54;11.80;99.90
18888;DHT22;9576;47.792;9.628;2023-01-13T13:39:15;11.50;99.90
18888;DHT22;9576;47.792;9.628;2023-01-13T13:42:39;11.20;99.90
18888;DHT22;9576;47.792;9.628;2023-01-13T13:46:01;10.60;99.90
18888;DHT22;9576;47.792;9.628;2023-01-13T13:49:34;10.70;99.90
18888;DHT22;9576;47.792;9.628;2023-01-13T13:52:39;10.70;99.90
18888;DHT22;9576;47.792;9.628;2023-01-13T13:55:51;10.40;99.90
18888;DHT22;9576;47.792;9.628;2023-01-13T13:58:54;10.20;99.90
18888;DHT22;9576;47.792;9.628;2023-01-13T14:01:58;9.90;99.90
18888;DHT22;9576;47.792;9.628;2023-01-13T14:05:10;9.70;99.90
18888;DHT22;9576;47.792;9.628;2023-01-13T14:08:17;9.70;99.90
18888;DHT22;9576;47.792;9.628;2023-01-13T14:11:26;10.40;99.90
18888;DHT22;9576;47.792;9.628;2023-01-13T14:14:28;11.10;99.90
18888;DHT22;9576;47.792;9.628;2023-01-13T14:17:33;11.30;99.90
18888;DHT22;9576;47.792;9.628;2023-01-13T14:20:35;11.30;99.90
18888;DHT22;9576;47.792;9.628;2023-01-13T14:23:37;10.90;99.90
18888;DHT22;9576;47.792;9.628;2023-01-13T14:26:40;10.70;99.90
18888;DHT22;9576;47.792;9.628;2023-01-13T14:29:42;10.40;99.90
18888;DHT22;9576;47.792;9.628;2023-01-13T14:32:46;10.00;99.90
18888;DHT22;9576;47.792;9.628;2023-01-13T14:36:15;9.80;99.90
18888;DHT22;9576;47.792;9.628;2023-01-13T14:39:31;9.50;99.90
18888;DHT22;9576;47.792;9.628;2023-01-13T14:42:34;9.30;99.90
18888;DHT22;9576;47.792;9.628;2023-01-13T14:45:36;9.20;99.90
18888;DHT22;9576;47.792;9.628;2023-01-13T14:48:40;9.20;99.90
18888;DHT22;9576;47.792;9.628;2023-01-13T14:51:46;9.20;99.90
18888;DHT22;9576;47.792;9.628;2023-01-13T14:54:49;9.10;99.90
18888;DHT22;9576;47.792;9.628;2023-01-13T14:57:52;8.90;99.90
18888;DHT22;9576;47.792;9.628;2023-01-13T15:01:26;8.80;99.90
18888;DHT22;9576;47.792;9.628;2023-01-13T15:04:33;8.60;99.90
18888;DHT22;9576;47.792;9.628;2023-01-13T15:07:37;8.50;99.90
18888;DHT22;9576;47.792;9.628;2023-01-13T15:10:46;8.40;99.90
18888;DHT22;9576;47.792;9.628;2023-01-13T15:13:54;8.30;99.90
18888;DHT22;9576;47.792;9.628;2023-01-13T15:16:57;8.30;99.90
18888;DHT22;9576;47.792;9.628;2023-01-13T15:20:01;8.20;99.90
18888;DHT22;9576;47.792;9.628;2023-01-13T15:23:03;8.20;99.90
18888;DHT22;9576;47.792;9.628;2023-01-13T15:26:15;8.10;99.90
18888;DHT22;9576;47.792;9.628;2023-01-13T15:29:18;8.00;99.90
18888;DHT22;9576;47.792;9.628;2023-01-13T15:32:21;7.90;99.90
18888;DHT22;9576;47.792;9.628;2023-01-13T15:35:26;7.80;99.90
18888;DHT22;9576;47.792;9.628;2023-01-13T15:38:29;7.80;99.90
18888;DHT22;9576;47.792;9.628;2023-01-13T15:41:31;7.70;99.90
18888;DHT22;9576;47.792;9.628;2023-01-13T15:44:50;7.60;99.90
18888;DHT22;9576;47.792;9.628;2023-01-13T15:48:10;7.60;99.90
18888;DHT22;9576;47.792;9.628;2023-01-13T15:51:14;7.50;99.90
18888;DHT22;9576;47.792;9.628;2023-01-13T15:54:16;7.40;99.90
18888;DHT22;9576;47.792;9.628;2023-01-13T15:57:21;7.20;99.90
18888;DHT22;9576;47.792;9.628;2023-01-13T16:00:24;6.90;99.90
18888;DHT22;9576;47.792;9.628;2023-01-13T16:03:26;6.80;99.90
18888;DHT22;9576;47.792;9.628;2023-01-13T16:06:30;6.60;99.90
18888;DHT22;9576;47.792;9.628;2023-01-13T16:09:34;6.50;99.90
18888;DHT22;9576;47.792;9.628;2023-01-13T16:12:36;6.30;99.90
18888;DHT22;9576;47.792;9.628;2023-01-13T16:15:41;6.10;99.90
18888;DHT22;9576;47.792;9.628;2023-01-13T16:18:43;6.00;99.90
18888;DHT22;9576;47.792;9.628;2023-01-13T16:21:47;5.90;99.90
18888;DHT22;9576;47.792;9.628;2023-01-13T16:24:48;5.80;99.90
18888;DHT22;9576;47.792;9.628;2023-01-13T16:27:51;5.60;99.90
18888;DHT22;9576;47.792;9.628;2023-01-13T16:30:53;5.50;99.90
18888;DHT22;9576;47.792;9.628;2023-01-13T16:33:55;5.40;99.90
18888;DHT22;9576;47.792;9.628;2023-01-13T16:36:59;5.30;99.90
18888;DHT22;9576;47.792;9.628;2023-01-13T16:40:00;5.20;99.90
18888;DHT22;9576;47.792;9.628;2023-01-13T16:43:03;5.20;99.90
18888;DHT22;9576;47.792;9.628;2023-01-13T16:46:24;5.10;99.90
18888;DHT22;9576;47.792;9.628;2023-01-13T16:49:27;5.10;99.90
18888;DHT22;9576;47.792;9.628;2023-01-13T16:52:30;5.10;99.90
18888;DHT22;9576;47.792;9.628;2023-01-13T16:55:32;5.00;99.90
18888;DHT22;9576;47.792;9.628;2023-01-13T16:58:34;5.00;99.90
18888;DHT22;9576;47.792;9.628;2023-01-13T17:01:37;5.10;99.90
18888;DHT22;9576;47.792;9.628;2023-01-13T17:04:40;5.00;99.90
18888;DHT22;9576;47.792;9.628;2023-01-13T17:07:45;5.00;99.90
18888;DHT22;9576;47.792;9.628;2023-01-13T17:10:47;5.00;99.90
18888;DHT22;9576;47.792;9.628;2023-01-13T17:13:51;4.90;99.90
18888;DHT22;9576;47.792;9.628;2023-01-13T17:16:54;5.00;99.90
18888;DHT22;9576;47.792;9.628;2023-01-13T17:19:56;5.00;99.90
18888;DHT22;9576;47.792;9.628;2023-01-13T17:22:59;5.00;99.90
18888;DHT22;9576;47.792;9.628;2023-01-13T17:26:01;5.00;99.90
18888;DHT22;9576;47.792;9.628;2023-01-13T17:29:04;5.00;99.90
18888;DHT22;9576;47.792;9.628;2023-01-13T17:32:06;5.00;99.90
18888;DHT22;9576;47.792;9.628;2023-01-13T17:35:09;5.00;99.90
18888;DHT22;9576;47.792;9.628;2023-01-13T17:38:13;5.00;99.90
18888;DHT22;9576;47.792;9.628;2023-01-13T17:41:15;5.00;99.90
18888;DHT22;9576;47.792;9.628;2023-01-13T17:44:19;5.00;99.90
18888;DHT22;9576;47.792;9.628;2023-01-13T17:47:21;4.90;99.90
18888;DHT22;9576;47.792;9.628;2023-01-13T17:50:23;4.90;99.90
18888;DHT22;9576;47.792;9.628;2023-01-13T17:53:28;4.80;99.90
18888;DHT22;9576;47.792;9.628;2023-01-13T17:56:30;4.90;99.90
18888;DHT22;9576;47.792;9.628;2023-01-13T17:59:32;4.90;99.90
18888;DHT22;9576;47.792;9.628;2023-01-13T18:02:34;4.90;99.90
18888;DHT22;9576;47.792;9.628;2023-01-13T18:05:36;4.90;99.90
18888;DHT22;9576;47.792;9.628;2023-01-13T18:08:39;5.00;99.90
18888;DHT22;9576;47.792;9.628;2023-01-13T18:11:42;5.00;99.90
18888;DHT22;9576;47.792;9.628;2023-01-13T18:14:44;5.10;99.90
18888;DHT22;9576;47.792;9.628;2023-01-13T18:17:46;5.10;99.90
18888;DHT22;9576;47.792;9.628;2023-01-13T18:20:48;5.10;99.90
18888;DHT22;9576;47.792;9.628;2023-01-13T18:24:11;5.10;99.90
18888;DHT22;9576;47.792;9.628;2023-01-13T18:27:32;5.10;99.90
18888;DHT22;9576;47.792;9.628;2023-01-13T18:30:34;5.10;99.90
18888;DHT22;9576;47.792;9.628;2023-01-13T18:33:36;5.10;99.90
18888;DHT22;9576;47.792;9.628;2023-01-13T18:36:38;5.10;99.90
18888;DHT22;9576;47.792;9.628;2023-01-13T18:39:41;5.10;99.90
18888;DHT22;9576;47.792;9.628;2023-01-13T18:42:43;5.10;99.90
18888;DHT22;9576;47.792;9.628;2023-01-13T18:45:54;5.10;99.90
18888;DHT22;9576;47.792;9.628;2023-01-13T18:48:57;5.10;99.90
18888;DHT22;9576;47.792;9.628;2023-01-13T18:51:59;5.10;99.90
18888;DHT22;9576;47.792;9.628;2023-01-13T18:55:02;5.10;99.90
18888;DHT22;9576;47.792;9.628;2023-01-13T18:58:04;5.10;99.90
18888;DHT22;9576;47.792;9.628;2023-01-13T19:01:06;5.10;99.90
18888;DHT22;9576;47.792;9.628;2023-01-13T19:04:13;5.20;99.90
18888;DHT22;9576;47.792;9.628;2023-01-13T19:07:15;5.20;99.90
18888;DHT22;9576;47.792;9.628;2023-01-13T19:10:24;5.20;99.90
18888;DHT22;9576;47.792;9.628;2023-01-13T19:13:31;5.20;99.90
18888;DHT22;9576;47.792;9.628;2023-01-13T19:16:33;5.20;99.90
18888;DHT22;9576;47.792;9.628;2023-01-13T19:19:39;5.20;99.90
18888;DHT22;9576;47.792;9.628;2023-01-13T19:22:42;5.30;99.90
18888;DHT22;9576;47.792;9.628;2023-01-13T19:25:51;5.30;99.90
18888;DHT22;9576;47.792;9.628;2023-01-13T19:28:54;5.30;99.90
18888;DHT22;9576;47.792;9.628;2023-01-13T19:31:56;5.30;99.90
18888;DHT22;9576;47.792;9.628;2023-01-13T19:34:58;5.30;99.90
18888;DHT22;9576;47.792;9.628;2023-01-13T19:38:00;5.40;99.90
18888;DHT22;9576;47.792;9.628;2023-01-13T19:41:05;5.40;99.90
18888;DHT22;9576;47.792;9.628;2023-01-13T19:44:27;5.40;99.90
18888;DHT22;9576;47.792;9.628;2023-01-13T19:47:46;5.40;99.90
18888;DHT22;9576;47.792;9.628;2023-01-13T19:50:48;5.40;99.90
18888;DHT22;9576;47.792;9.628;2023-01-13T19:53:50;5.50;99.90
18888;DHT22;9576;47.792;9.628;2023-01-13T19:56:53;5.50;99.90
18888;DHT22;9576;47.792;9.628;2023-01-13T19:59:55;5.50;99.90
18888;DHT22;9576;47.792;9.628;2023-01-13T20:02:57;5.50;99.90
18888;DHT22;9576;47.792;9.628;2023-01-13T20:06:06;5.20;99.90
18888;DHT22;9576;47.792;9.628;2023-01-13T20:09:09;4.70;99.90
18888;DHT22;9576;47.792;9.628;2023-01-13T20:12:13;4.50;99.90
18888;DHT22;9576;47.792;9.628;2023-01-13T20:15:16;4.30;99.90
18888;DHT22;9576;47.792;9.628;2023-01-13T20:18:18;4.20;99.90
18888;DHT22;9576;47.792;9.628;2023-01-13T20:21:20;4.20;99.90
18888;DHT22;9576;47.792;9.628;2023-01-13T20:24:22;4.20;99.90
18888;DHT22;9576;47.792;9.628;2023-01-13T20:27:27;4.10;99.90